Time;durP1;ratioP1;P1;durP2;ratioP2;P2;SDS_P1;SDS_P2;PMS_P1;PMS_P2;Temp;Humidity;BMP_temperature;BMP_pressure;BME280_temperature;BME280_humidity;BME280_pressure;Samples;Min_cycle;Max_cycle;Signal;HPM_P1;HPM_P2
2021/08/05 00:00:08;;;;;;;5.00;4.50;;;17.20;99.90;;;;;;5038911;28;20450;-84
2021/08/05 00:02:35;;;;;;;4.73;4.30;;;17.10;99.90;;;;;;5040253;28;20443;-85
2021/08/05 00:05:01;;;;;;;4.50;4.17;;;17.10;99.90;;;;;;5043310;28;20443;-84
2021/08/05 00:07:28;;;;;;;4.87;4.00;;;17.10;99.90;;;;;;5037881;28;20486;-84
2021/08/05 00:09:56;;;;;;;6.60;4.80;;;17.10;99.90;;;;;;5038046;28;20485;-84
2021/08/05 00:12:22;;;;;;;5.63;4.00;;;17.10;99.90;;;;;;5038842;28;20482;-84
2021/08/05 00:14:49;;;;;;;5.30;4.43;;;17.10;99.90;;;;;;5036783;28;20561;-85
2021/08/05 00:17:16;;;;;;;5.93;4.40;;;17.00;99.90;;;;;;5037849;28;20981;-85
2021/08/05 00:19:43;;;;;;;4.60;4.20;;;17.40;99.90;;;;;;5036865;28;20478;-84
2021/08/05 00:22:09;;;;;;;4.53;4.07;;;16.90;99.90;;;;;;5036973;28;20516;-85
2021/08/05 00:24:36;;;;;;;4.23;3.87;;;17.00;99.90;;;;;;5036130;28;20443;-84
2021/08/05 00:27:04;;;;;;;4.93;4.37;;;17.00;99.90;;;;;;5036217;28;20506;-84
2021/08/05 00:29:31;;;;;;;4.27;3.97;;;17.00;99.90;;;;;;5036461;28;21009;-86
2021/08/05 00:31:58;;;;;;;5.17;4.33;;;17.20;99.90;;;;;;5036903;28;20482;-85
2021/08/05 00:34:24;;;;;;;6.83;4.53;;;17.00;99.90;;;;;;5036396;28;20443;-84
2021/08/05 00:36:51;;;;;;;6.80;4.97;;;17.00;99.90;;;;;;5036008;28;20501;-85
2021/08/05 00:39:17;;;;;;;4.30;3.90;;;16.90;99.90;;;;;;5036686;28;20462;-85
2021/08/05 00:41:44;;;;;;;5.57;4.07;;;16.90;99.90;;;;;;5035839;28;20581;-84
2021/08/05 00:44:12;;;;;;;5.70;5.13;;;16.70;99.90;;;;;;5036401;28;20489;-85
2021/08/05 00:46:39;;;;;;;6.10;3.60;;;16.80;99.90;;;;;;5036199;28;20478;-83
2021/08/05 00:49:05;;;;;;;4.80;4.20;;;16.80;99.90;;;;;;5044093;28;20447;-83
2021/08/05 00:51:33;;;;;;;6.47;3.53;;;16.90;99.90;;;;;;5043249;28;20443;-84
2021/08/05 00:54:00;;;;;;;4.53;4.13;;;16.90;99.90;;;;;;5039867;28;20447;-85
2021/08/05 00:56:28;;;;;;;4.00;3.60;;;16.80;99.90;;;;;;5049161;28;20457;-84
2021/08/05 00:58:55;;;;;;;4.50;4.10;;;16.80;99.90;;;;;;5059067;28;20447;-84
2021/08/05 01:01:28;;;;;;;5.57;4.33;;;16.80;99.90;;;;;;5053601;28;20443;-85
2021/08/05 01:03:58;;;;;;;4.20;3.80;;;17.10;99.90;;;;;;5041971;28;20463;-84
2021/08/05 01:06:35;;;;;;;3.70;3.40;;;16.50;99.90;;;;;;5039319;28;20447;-85
2021/08/05 01:09:05;;;;;;;5.10;3.97;;;16.80;99.90;;;;;;5039180;28;20870;-85
2021/08/05 01:11:37;;;;;;;5.00;3.70;;;16.80;99.90;;;;;;5039062;28;20484;-84
2021/08/05 01:14:08;;;;;;;6.00;4.03;;;16.80;99.90;;;;;;5039283;28;20803;-85
2021/08/05 01:16:41;;;;;;;4.27;3.57;;;16.80;99.90;;;;;;5039172;28;20521;-84
2021/08/05 01:19:22;;;;;;;3.63;3.43;;;16.80;99.90;;;;;;5039572;28;20431;-85
2021/08/05 01:21:57;;;;;;;3.40;3.20;;;16.80;99.90;;;;;;5039101;28;20470;-85
2021/08/05 01:24:25;;;;;;;5.23;2.87;;;16.90;99.90;;;;;;5039348;28;20435;-85
2021/08/05 01:27:00;;;;;;;2.87;2.67;;;16.90;99.90;;;;;;5040863;28;20475;-84
2021/08/05 01:29:29;;;;;;;6.03;3.73;;;16.90;99.90;;;;;;5045856;28;20439;-84
2021/08/05 01:31:56;;;;;;;4.80;3.40;;;16.80;99.90;;;;;;5045755;28;21119;-84
2021/08/05 01:34:24;;;;;;;3.67;2.90;;;16.80;99.90;;;;;;5046303;28;20439;-84
2021/08/05 01:36:52;;;;;;;4.33;3.10;;;16.80;99.90;;;;;;5045586;28;20542;-84
2021/08/05 01:39:19;;;;;;;3.60;3.30;;;16.80;99.90;;;;;;5046320;28;20451;-84
2021/08/05 01:41:48;;;;;;;4.53;3.00;;;16.90;99.90;;;;;;5044291;28;20485;-85
2021/08/05 01:44:17;;;;;;;6.50;3.50;;;16.90;99.90;;;;;;5044838;28;20443;-84
2021/08/05 01:46:44;;;;;;;5.43;3.37;;;16.90;99.90;;;;;;5044460;28;20491;-85
2021/08/05 01:49:12;;;;;;;3.33;3.03;;;16.90;99.90;;;;;;5045263;28;20487;-85
2021/08/05 01:51:40;;;;;;;4.20;3.33;;;16.90;99.90;;;;;;5045182;28;20447;-85
2021/08/05 01:54:07;;;;;;;3.30;3.10;;;16.90;99.90;;;;;;5043891;28;20537;-84
2021/08/05 01:56:34;;;;;;;3.73;3.43;;;16.80;99.90;;;;;;5043041;28;20485;-84
2021/08/05 01:59:00;;;;;;;4.27;3.33;;;16.60;99.90;;;;;;5043913;28;20443;-85
2021/08/05 02:01:29;;;;;;;3.87;3.50;;;16.60;99.90;;;;;;5044319;28;20509;-84
2021/08/05 02:04:06;;;;;;;5.57;2.93;;;16.60;99.90;;;;;;5044779;28;20446;-85
2021/08/05 02:06:36;;;;;;;3.70;3.40;;;16.60;99.90;;;;;;5040945;28;20481;-84
2021/08/05 02:09:11;;;;;;;3.67;3.23;;;16.60;99.90;;;;;;5038620;28;20478;-85
2021/08/05 02:11:42;;;;;;;3.73;3.20;;;16.60;99.90;;;;;;5038330;28;20446;-85
2021/08/05 02:14:11;;;;;;;4.20;2.90;;;16.60;99.90;;;;;;5038405;28;20471;-84
2021/08/05 02:16:41;;;;;;;3.93;2.97;;;16.60;99.90;;;;;;5037871;28;20499;-84
2021/08/05 02:19:08;;;;;;;4.40;3.33;;;16.60;99.90;;;;;;5038381;28;20462;-84
2021/08/05 02:21:36;;;;;;;3.20;3.00;;;16.50;99.90;;;;;;5037856;28;20479;-84
2021/08/05 02:24:05;;;;;;;3.47;2.90;;;16.50;99.90;;;;;;5038448;28;20872;-84
2021/08/05 02:26:31;;;;;;;4.03;3.40;;;16.40;99.90;;;;;;5037708;28;20466;-84
2021/08/05 02:28:59;;;;;;;4.40;3.60;;;16.40;99.90;;;;;;5039542;28;20868;-84
2021/08/05 02:31:25;;;;;;;3.80;3.50;;;16.40;99.90;;;;;;5038947;28;20451;-84
2021/08/05 02:33:56;;;;;;;3.17;2.87;;;16.40;99.90;;;;;;5039353;28;20478;-85
2021/08/05 02:36:22;;;;;;;3.63;3.33;;;16.50;99.90;;;;;;5038952;28;20466;-85
2021/08/05 02:38:49;;;;;;;3.80;3.27;;;16.40;99.90;;;;;;5038366;28;20239;-85
2021/08/05 02:41:16;;;;;;;3.43;2.97;;;16.30;99.90;;;;;;5038057;28;20864;-85
2021/08/05 02:43:44;;;;;;;3.63;3.33;;;16.30;99.90;;;;;;5038915;28;20446;-85
2021/08/05 02:46:12;;;;;;;4.17;3.20;;;16.10;99.90;;;;;;5037715;28;20483;-85
2021/08/05 02:48:39;;;;;;;3.80;3.50;;;16.30;99.90;;;;;;5037413;28;20964;-85
2021/08/05 02:51:07;;;;;;;3.57;3.37;;;16.30;99.90;;;;;;5036462;28;20980;-85
2021/08/05 02:53:35;;;;;;;4.70;3.47;;;16.30;99.90;;;;;;5036991;28;20482;-86
2021/08/05 02:56:01;;;;;;;4.07;3.70;;;16.30;99.90;;;;;;5037574;28;20489;-85
2021/08/05 02:58:29;;;;;;;2.90;2.70;;;16.40;99.90;;;;;;5037132;28;20498;-85
2021/08/05 03:00:56;;;;;;;4.30;3.53;;;16.40;99.90;;;;;;5037348;28;20451;-85
2021/08/05 03:03:24;;;;;;;3.83;3.53;;;16.30;99.90;;;;;;5047150;28;21056;-84
2021/08/05 03:05:52;;;;;;;4.77;4.00;;;16.30;99.90;;;;;;5057437;28;20418;-84
2021/08/05 03:08:19;;;;;;;4.97;3.30;;;16.30;99.90;;;;;;5062995;22;20487;-79
2021/08/05 03:10:46;;;;;;;3.67;3.47;;;16.20;99.90;;;;;;5036641;28;20497;-80
2021/08/05 03:13:13;;;;;;;4.63;3.47;;;16.60;99.90;;;;;;5037714;28;20483;-80
2021/08/05 03:15:40;;;;;;;4.10;3.70;;;16.30;99.90;;;;;;5037655;28;20475;-80
2021/08/05 03:18:06;;;;;;;4.33;3.90;;;16.30;99.90;;;;;;5038630;28;20509;-80
2021/08/05 03:20:33;;;;;;;3.90;3.50;;;16.20;99.90;;;;;;5040800;28;20973;-78
2021/08/05 03:22:59;;;;;;;3.67;3.20;;;16.30;99.90;;;;;;5037354;28;20475;-80
2021/08/05 03:25:28;;;;;;;3.80;3.27;;;16.30;99.90;;;;;;5037368;28;20450;-80
2021/08/05 03:27:55;;;;;;;3.77;3.47;;;16.30;99.90;;;;;;5036123;28;20494;-80
2021/08/05 03:30:22;;;;;;;6.90;3.70;;;16.30;99.90;;;;;;5037620;28;20451;-79
2021/08/05 03:32:49;;;;;;;4.40;3.43;;;16.20;99.90;;;;;;5036364;28;20464;-79
2021/08/05 03:35:15;;;;;;;3.83;3.50;;;16.20;99.90;;;;;;5042275;28;20505;-78
2021/08/05 03:37:42;;;;;;;4.10;3.00;;;16.20;99.90;;;;;;5041050;28;20478;-79
2021/08/05 03:40:09;;;;;;;4.13;3.47;;;16.20;99.90;;;;;;5036866;28;20450;-79
2021/08/05 03:42:37;;;;;;;5.57;3.27;;;16.20;99.90;;;;;;5036435;28;20524;-79
2021/08/05 03:45:04;;;;;;;3.77;3.07;;;16.10;99.90;;;;;;5036958;28;20486;-80
2021/08/05 03:47:31;;;;;;;4.20;3.90;;;16.00;99.90;;;;;;5040450;28;20475;-77
2021/08/05 03:49:57;;;;;;;5.47;3.73;;;16.00;99.90;;;;;;5041826;28;20450;-78
2021/08/05 03:52:24;;;;;;;3.60;3.30;;;15.90;99.90;;;;;;5039912;28;20817;-79
2021/08/05 03:54:51;;;;;;;4.53;3.60;;;15.90;99.90;;;;;;5037585;28;20470;-78
2021/08/05 03:57:17;;;;;;;4.60;3.50;;;16.00;99.90;;;;;;5035751;28;20467;-79
2021/08/05 03:59:45;;;;;;;5.20;3.13;;;16.00;99.90;;;;;;5035704;28;20443;-80
2021/08/05 04:02:11;;;;;;;5.30;3.80;;;16.00;99.90;;;;;;5038724;28;20448;-78
2021/08/05 04:04:38;;;;;;;4.63;3.60;;;16.10;99.90;;;;;;5041682;28;20447;-79
2021/08/05 04:07:05;;;;;;;3.57;3.27;;;16.20;99.90;;;;;;5043314;28;20489;-79
2021/08/05 04:09:32;;;;;;;3.73;3.30;;;16.10;99.90;;;;;;5041051;28;20446;-78
2021/08/05 04:11:58;;;;;;;4.18;3.00;;;16.00;99.90;;;;;;5039033;28;20448;-78
2021/08/05 04:14:25;;;;;;;4.20;3.20;;;16.20;99.90;;;;;;5042898;28;20228;-78
2021/08/05 04:16:53;;;;;;;5.80;4.00;;;16.20;99.90;;;;;;5043291;28;20501;-78
2021/08/05 04:19:19;;;;;;;5.73;3.53;;;16.20;99.90;;;;;;5045191;28;20451;-78
2021/08/05 04:21:49;;;;;;;4.43;3.40;;;16.10;99.90;;;;;;5044774;28;20822;-78
2021/08/05 04:24:16;;;;;;;7.60;4.23;;;16.10;99.90;;;;;;5050249;28;20438;-77
2021/08/05 04:26:43;;;;;;;6.67;4.00;;;15.90;99.90;;;;;;5048195;28;20813;-78
2021/08/05 04:29:09;;;;;;;4.80;3.67;;;16.10;99.90;;;;;;5050753;28;20457;-77
2021/08/05 04:31:36;;;;;;;4.47;3.40;;;16.10;99.90;;;;;;5048827;28;20442;-77
2021/08/05 04:34:04;;;;;;;4.73;4.33;;;16.00;99.90;;;;;;5046394;28;20478;-77
2021/08/05 04:36:30;;;;;;;4.03;3.63;;;15.80;99.90;;;;;;5047442;28;20451;-78
2021/08/05 04:38:57;;;;;;;5.40;4.27;;;15.90;99.90;;;;;;5046724;28;20447;-78
2021/08/05 04:41:24;;;;;;;3.97;3.50;;;16.00;99.90;;;;;;5047097;28;20455;-78
2021/08/05 04:43:51;;;;;;;6.23;3.80;;;15.90;99.90;;;;;;5048999;28;20497;-78
2021/08/05 04:46:18;;;;;;;7.00;4.50;;;15.90;99.90;;;;;;5050570;28;20508;-78
2021/08/05 04:48:44;;;;;;;5.83;4.37;;;16.00;99.90;;;;;;5048095;28;20471;-77
2021/08/05 04:51:12;;;;;;;5.50;3.73;;;16.10;99.90;;;;;;5048253;28;20458;-78
2021/08/05 04:53:39;;;;;;;4.53;4.13;;;16.20;99.90;;;;;;5045542;28;20482;-78
2021/08/05 04:56:06;;;;;;;5.70;3.73;;;16.20;99.90;;;;;;5042446;28;20973;-79
2021/08/05 04:58:32;;;;;;;6.33;4.50;;;16.30;99.90;;;;;;5045291;28;20497;-77
2021/08/05 05:00:59;;;;;;;5.63;4.90;;;16.30;99.90;;;;;;5046510;28;20446;-78
2021/08/05 05:03:26;;;;;;;5.60;4.13;;;16.30;99.90;;;;;;5044178;28;20474;-79
2021/08/05 05:05:53;;;;;;;5.77;4.30;;;16.30;99.90;;;;;;5040435;28;20462;-81
2021/08/05 05:08:22;;;;;;;5.00;4.17;;;16.30;99.90;;;;;;5039141;28;20506;-79
2021/08/05 05:10:51;;;;;;;4.57;3.97;;;16.30;99.90;;;;;;5039045;28;20538;-80
2021/08/05 05:13:18;;;;;;;10.10;4.80;;;16.20;99.90;;;;;;5039824;28;20590;-79
2021/08/05 05:15:46;;;;;;;4.40;3.90;;;16.30;99.90;;;;;;5038777;28;20520;-80
2021/08/05 05:18:14;;;;;;;10.80;4.10;;;16.50;99.90;;;;;;5038196;28;20499;-80
2021/08/05 05:20:41;;;;;;;6.33;4.80;;;16.60;99.90;;;;;;5040159;28;20448;-79
2021/08/05 05:23:08;;;;;;;7.57;5.07;;;16.70;99.90;;;;;;5040312;28;20447;-79
2021/08/05 05:25:37;;;;;;;6.87;4.57;;;16.70;99.90;;;;;;5040787;28;20560;-79
2021/08/05 05:28:05;;;;;;;5.57;4.50;;;16.80;99.90;;;;;;5042290;28;20498;-81
2021/08/05 05:30:31;;;;;;;5.77;5.23;;;16.80;99.90;;;;;;5044138;28;20450;-78
2021/08/05 05:32:58;;;;;;;4.87;4.40;;;16.80;99.90;;;;;;5043645;28;20505;-79
2021/08/05 05:35:25;;;;;;;11.07;7.13;;;16.80;99.90;;;;;;5045948;28;20451;-78
2021/08/05 05:37:54;;;;;;;6.87;5.73;;;16.90;99.90;;;;;;5048050;28;20478;-79
2021/08/05 05:40:21;;;;;;;8.67;5.13;;;16.90;99.90;;;;;;5049661;28;20451;-78
2021/08/05 05:42:49;;;;;;;5.80;5.30;;;16.90;99.90;;;;;;5043498;28;20455;-78
2021/08/05 05:45:18;;;;;;;6.70;5.20;;;16.90;99.90;;;;;;5043063;28;20451;-79
2021/08/05 05:47:45;;;;;;;9.40;5.47;;;17.00;99.90;;;;;;5040049;28;20471;-80
2021/08/05 05:50:13;;;;;;;7.00;5.07;;;17.00;99.90;;;;;;5039957;28;20451;-80
2021/08/05 05:52:41;;;;;;;6.87;5.60;;;16.90;99.90;;;;;;5038303;28;20447;-80
2021/08/05 05:55:09;;;;;;;6.57;5.90;;;16.90;99.90;;;;;;5038004;28;20494;-80
2021/08/05 05:57:35;;;;;;;5.33;4.83;;;16.90;99.90;;;;;;5038017;28;21012;-80
2021/08/05 06:00:04;;;;;;;5.43;4.93;;;16.90;99.90;;;;;;5037702;28;20447;-80
2021/08/05 06:02:31;;;;;;;6.13;5.10;;;17.00;99.90;;;;;;5038895;28;20817;-79
2021/08/05 06:04:57;;;;;;;7.72;4.60;;;17.00;99.90;;;;;;5039276;28;20446;-81
2021/08/05 06:07:24;;;;;;;7.27;6.60;;;17.00;99.90;;;;;;5039981;28;20311;-78
2021/08/05 06:09:51;;;;;;;6.10;5.50;;;17.20;99.90;;;;;;5041858;28;20451;-77
2021/08/05 06:12:17;;;;;;;6.97;5.00;;;17.30;99.90;;;;;;5041400;28;20853;-78
2021/08/05 06:14:44;;;;;;;6.60;5.90;;;17.30;99.90;;;;;;5040086;28;21007;-80
2021/08/05 06:17:12;;;;;;;7.93;5.90;;;17.40;99.90;;;;;;5038148;28;20505;-80
2021/08/05 06:19:38;;;;;;;6.33;5.73;;;17.50;99.90;;;;;;5037399;28;20957;-80
2021/08/05 06:22:05;;;;;;;8.03;6.30;;;17.60;99.90;;;;;;5037462;28;20966;-80
2021/08/05 06:24:32;;;;;;;11.43;5.60;;;17.60;99.90;;;;;;5037264;28;20486;-79
2021/08/05 06:26:58;;;;;;;9.90;6.10;;;17.70;99.90;;;;;;5037835;28;20601;-78
2021/08/05 06:29:30;;;;;;;11.17;6.07;;;17.70;99.90;;;;;;5041544;28;20443;-79
2021/08/05 06:31:57;;;;;;;7.53;5.20;;;17.70;99.90;;;;;;5042532;28;20772;-79
2021/08/05 06:34:25;;;;;;;6.70;5.90;;;17.80;99.90;;;;;;5039954;28;20493;-78
2021/08/05 06:36:52;;;;;;;6.53;5.93;;;17.90;99.90;;;;;;5042831;28;20467;-79
2021/08/05 06:39:18;;;;;;;7.07;6.37;;;18.00;99.90;;;;;;5042495;28;20512;-78
2021/08/05 06:41:45;;;;;;;9.10;6.70;;;18.10;99.90;;;;;;5042271;28;20469;-78
2021/08/05 06:44:12;;;;;;;6.90;6.20;;;18.10;99.90;;;;;;5045649;28;20510;-79
2021/08/05 06:46:39;;;;;;;10.50;6.70;;;18.30;99.90;;;;;;5046365;28;20504;-80
2021/08/05 06:49:05;;;;;;;6.77;6.17;;;18.00;99.90;;;;;;5040182;28;20524;-80
2021/08/05 06:51:33;;;;;;;8.20;5.83;;;18.00;99.90;;;;;;5038963;28;20474;-80
2021/08/05 06:54:00;;;;;;;6.10;5.60;;;18.20;99.90;;;;;;5038054;28;20518;-80
2021/08/05 06:56:26;;;;;;;5.60;5.10;;;18.40;99.90;;;;;;5036831;28;20471;-79
2021/08/05 06:58:53;;;;;;;6.07;5.27;;;18.30;99.90;;;;;;5036808;28;20459;-79
2021/08/05 07:01:19;;;;;;;8.90;5.93;;;18.50;99.90;;;;;;5036833;28;20447;-80
2021/08/05 07:03:46;;;;;;;9.60;6.00;;;18.60;99.90;;;;;;5036604;28;20500;-79
2021/08/05 07:06:13;;;;;;;10.43;6.87;;;18.60;99.90;;;;;;5036818;28;20881;-80
2021/08/05 07:08:40;;;;;;;7.80;6.47;;;18.70;99.90;;;;;;5036942;28;20503;-80
2021/08/05 07:11:07;;;;;;;7.63;6.83;;;18.60;99.90;;;;;;5035979;28;20471;-80
2021/08/05 07:13:34;;;;;;;9.47;6.80;;;18.60;99.90;;;;;;5036414;28;20451;-79
2021/08/05 07:16:00;;;;;;;8.83;6.60;;;18.70;99.90;;;;;;5036224;28;20475;-79
2021/08/05 07:18:27;;;;;;;5.60;5.10;;;18.70;99.90;;;;;;5036318;28;20470;-78
2021/08/05 07:20:56;;;;;;;6.80;6.20;;;18.70;99.90;;;;;;5039530;28;20872;-78
2021/08/05 07:23:23;;;;;;;7.77;6.30;;;18.80;99.90;;;;;;5039463;28;20942;-79
2021/08/05 07:25:51;;;;;;;7.73;6.80;;;18.80;99.90;;;;;;5039806;28;20934;-78
2021/08/05 07:28:17;;;;;;;9.87;6.63;;;18.80;99.90;;;;;;5039289;28;20467;-77
2021/08/05 07:30:45;;;;;;;9.03;6.67;;;18.90;99.90;;;;;;5048251;28;20489;-77
2021/08/05 07:33:11;;;;;;;9.83;6.97;;;18.90;99.90;;;;;;5043814;28;20526;-79
2021/08/05 07:35:38;;;;;;;7.70;6.90;;;19.00;99.90;;;;;;5041346;28;20506;-78
2021/08/05 07:38:04;;;;;;;7.70;5.40;;;19.20;99.90;;;;;;5037443;28;20494;-80
2021/08/05 07:40:31;;;;;;;8.13;6.90;;;19.30;99.90;;;;;;5037670;28;20462;-81
2021/08/05 07:42:59;;;;;;;7.20;6.57;;;19.20;99.90;;;;;;5036946;28;20454;-80
2021/08/05 07:45:25;;;;;;;6.50;5.90;;;19.20;99.90;;;;;;5037091;28;20443;-80
2021/08/05 07:47:52;;;;;;;9.33;6.77;;;19.30;99.90;;;;;;5036713;28;20463;-80
2021/08/05 07:50:19;;;;;;;7.30;5.43;;;19.40;99.90;;;;;;5036636;28;20485;-81
2021/08/05 07:52:45;;;;;;;7.37;6.00;;;19.40;99.90;;;;;;5036249;28;20451;-80
2021/08/05 07:55:12;;;;;;;10.90;6.83;;;19.50;99.90;;;;;;5038733;28;20511;-79
2021/08/05 07:57:39;;;;;;;7.83;6.33;;;19.50;99.90;;;;;;5037781;28;20601;-80
2021/08/05 08:00:09;;;;;;;6.50;5.90;;;19.60;99.90;;;;;;5035997;28;20497;-80
2021/08/05 08:02:36;;;;;;;5.63;5.20;;;19.60;99.90;;;;;;5036080;28;20486;-80
2021/08/05 08:05:02;;;;;;;5.93;4.83;;;19.60;99.90;;;;;;5036268;28;20486;-80
2021/08/05 08:07:30;;;;;;;5.80;5.13;;;19.70;99.90;;;;;;5035996;28;20499;-78
2021/08/05 08:09:56;;;;;;;6.07;5.57;;;19.80;99.90;;;;;;5036428;28;20853;-80
2021/08/05 08:12:23;;;;;;;6.20;5.60;;;19.80;99.90;;;;;;5035727;28;20482;-80
2021/08/05 08:14:49;;;;;;;9.13;7.43;;;19.90;99.90;;;;;;5035471;28;20522;-81
2021/08/05 08:17:17;;;;;;;7.57;6.87;;;19.90;99.90;;;;;;5035290;28;20475;-80
2021/08/05 08:19:44;;;;;;;8.00;6.20;;;19.80;99.90;;;;;;5035182;28;20954;-81
2021/08/05 08:22:11;;;;;;;7.80;7.00;;;19.80;99.90;;;;;;5035598;28;20863;-81
2021/08/05 08:24:37;;;;;;;9.40;6.80;;;19.90;99.90;;;;;;5035406;28;20447;-80
2021/08/05 08:27:04;;;;;;;9.63;7.03;;;19.80;99.90;;;;;;5035276;28;20471;-80
2021/08/05 08:29:31;;;;;;;6.07;5.57;;;19.80;99.90;;;;;;5038878;28;20469;-78
2021/08/05 08:31:57;;;;;;;7.07;6.43;;;19.90;99.90;;;;;;5039310;28;20447;-78
2021/08/05 08:34:25;;;;;;;8.20;6.50;;;19.90;99.90;;;;;;5039563;28;20485;-78
2021/08/05 08:36:52;;;;;;;6.77;5.77;;;19.90;99.90;;;;;;5035695;28;20566;-80
2021/08/05 08:39:22;;;;;;;7.33;5.80;;;19.90;99.90;;;;;;5036064;28;20512;-79
2021/08/05 08:41:49;;;;;;;6.17;5.67;;;20.00;99.90;;;;;;5036095;28;20451;-80
2021/08/05 08:44:16;;;;;;;9.00;6.90;;;20.00;99.90;;;;;;5035614;28;20504;-79
2021/08/05 08:46:43;;;;;;;7.77;6.80;;;20.00;99.90;;;;;;5035657;28;20510;-83
2021/08/05 08:49:10;;;;;;;8.80;7.23;;;20.10;99.90;;;;;;5035445;28;20549;-79
2021/08/05 08:51:39;;;;;;;7.30;6.60;;;20.20;99.90;;;;;;5037557;28;20447;-80
2021/08/05 08:54:07;;;;;;;9.03;6.67;;;20.10;99.90;;;;;;5035453;28;20510;-80
2021/08/05 08:56:35;;;;;;;7.07;5.90;;;20.60;99.90;;;;;;5035946;28;20447;-80
2021/08/05 08:59:01;;;;;;;9.07;6.43;;;20.00;99.90;;;;;;5035881;28;20447;-80
2021/08/05 09:01:30;;;;;;;5.37;4.83;;;20.20;99.90;;;;;;5035390;28;20446;-80
2021/08/05 09:03:56;;;;;;;6.30;5.70;;;20.30;99.90;;;;;;5035312;28;20451;-80
2021/08/05 09:06:23;;;;;;;12.60;6.23;;;20.40;99.90;;;;;;5035462;28;20477;-80
2021/08/05 09:08:51;;;;;;;5.43;5.03;;;20.60;99.90;;;;;;5072665;22;20533;-81
2021/08/05 09:11:19;;;;;;;7.00;6.23;;;20.60;99.90;;;;;;5055017;28;20465;-80
2021/08/05 09:13:45;;;;;;;8.47;6.60;;;20.70;99.90;;;;;;5054937;28;20429;-81
2021/08/05 09:16:23;;;;;;;13.93;6.67;;;20.70;99.90;;;;;;5056744;28;20498;-81
2021/08/05 09:18:50;;;;;;;6.10;5.60;;;20.80;99.90;;;;;;5053668;28;20463;-81
2021/08/05 09:21:19;;;;;;;6.73;6.00;;;20.90;99.90;;;;;;5047716;28;20501;-81
2021/08/05 09:23:55;;;;;;;7.57;5.53;;;21.00;99.90;;;;;;5043427;28;20480;-82
2021/08/05 09:26:24;;;;;;;6.13;4.77;;;21.10;99.90;;;;;;5041796;28;20424;-81
2021/08/05 09:29:00;;;;;;;5.90;5.37;;;21.10;99.90;;;;;;5043195;28;20541;-82
2021/08/05 09:31:27;;;;;;;6.50;5.47;;;21.10;99.90;;;;;;5040186;28;20438;-80
2021/08/05 09:34:00;;;;;;;6.07;5.57;;;21.20;99.90;;;;;;5050760;28;20447;-81
2021/08/05 09:36:27;;;;;;;5.00;4.60;;;21.10;99.90;;;;;;5049536;28;20475;-81
2021/08/05 09:38:55;;;;;;;7.67;4.37;;;21.20;99.90;;;;;;5041225;28;20482;-81
2021/08/05 09:41:22;;;;;;;5.87;3.60;;;21.20;99.90;;;;;;5039917;28;20481;-81
2021/08/05 09:43:49;;;;;;;7.20;4.97;;;21.30;99.90;;;;;;5040032;28;20820;-81
2021/08/05 09:46:30;;;;;;;7.57;4.00;;;21.40;99.90;;;;;;5042921;28;20475;-83
2021/08/05 09:48:57;;;;;;;4.90;4.43;;;21.50;99.90;;;;;;5040707;28;20516;-81
2021/08/05 09:51:23;;;;;;;3.93;3.63;;;21.60;99.90;;;;;;5049750;28;20447;-81
2021/08/05 09:54:00;;;;;;;4.40;3.87;;;21.60;99.90;;;;;;5054025;28;20440;-80
2021/08/05 09:56:27;;;;;;;4.23;3.83;;;21.70;99.90;;;;;;5046220;28;20467;-80
2021/08/05 09:59:03;;;;;;;4.57;4.13;;;21.70;99.90;;;;;;5047106;28;21039;-79
2021/08/05 10:01:30;;;;;;;4.27;3.40;;;21.80;99.90;;;;;;5046509;28;20442;-79
2021/08/05 10:03:56;;;;;;;6.90;4.20;;;21.80;99.90;;;;;;5047315;28;20883;-80
2021/08/05 10:06:23;;;;;;;8.50;4.60;;;21.90;99.90;;;;;;5045700;28;20465;-80
2021/08/05 10:08:49;;;;;;;5.80;4.13;;;21.90;99.90;;;;;;5047897;28;20471;-80
2021/08/05 10:11:17;;;;;;;8.57;4.80;;;21.80;99.90;;;;;;5047688;28;20520;-81
2021/08/05 10:13:44;;;;;;;4.93;4.53;;;21.80;99.90;;;;;;5047057;28;20443;-80
2021/08/05 10:16:12;;;;;;;4.93;4.53;;;21.90;99.90;;;;;;5039324;28;20540;-81
2021/08/05 10:18:42;;;;;;;4.47;4.17;;;21.80;99.90;;;;;;5040944;28;20474;-81
2021/08/05 10:21:12;;;;;;;4.20;3.90;;;21.90;99.90;;;;;;5040700;28;20435;-81
2021/08/05 10:23:42;;;;;;;4.80;4.37;;;21.90;99.90;;;;;;5039191;28;20427;-81
2021/08/05 10:26:10;;;;;;;4.50;4.10;;;22.00;99.90;;;;;;5041157;28;20447;-81
2021/08/05 10:28:39;;;;;;;5.13;4.73;;;22.00;99.90;;;;;;5052847;28;20476;-80
2021/08/05 10:31:10;;;;;;;5.10;4.70;;;22.00;99.90;;;;;;5053785;28;20443;-80
2021/08/05 10:33:38;;;;;;;4.70;4.30;;;22.00;99.90;;;;;;5049447;28;20442;-81
2021/08/05 10:36:05;;;;;;;4.70;4.40;;;22.00;99.90;;;;;;5050739;28;20513;-80
2021/08/05 10:38:33;;;;;;;5.80;5.30;;;21.90;99.90;;;;;;5053280;28;20996;-80
2021/08/05 10:41:01;;;;;;;11.10;6.40;;;22.00;99.90;;;;;;5052476;28;20498;-81
2021/08/05 10:43:28;;;;;;;5.63;5.00;;;22.10;99.90;;;;;;5048505;28;20453;-80
2021/08/05 10:45:56;;;;;;;8.47;4.30;;;22.10;99.90;;;;;;5051758;28;20489;-80
2021/08/05 10:48:23;;;;;;;5.83;5.23;;;22.10;99.90;;;;;;5040928;28;20466;-81
2021/08/05 10:50:50;;;;;;;5.47;5.07;;;22.20;99.90;;;;;;5038901;28;20489;-81
2021/08/05 10:53:43;;;;;;;5.37;4.60;;;22.30;99.90;;;;;;5038885;28;20451;-81
2021/08/05 10:56:22;;;;;;;4.33;4.00;;;22.40;99.90;;;;;;5037425;28;20498;-81
2021/08/05 10:59:10;;;;;;;4.80;4.27;;;22.40;99.90;;;;;;5040996;28;20471;-80
2021/08/05 11:01:53;;;;;;;3.97;3.67;;;22.40;99.90;;;;;;5040769;28;20441;-81
2021/08/05 11:04:44;;;;;;;4.40;4.10;;;22.30;99.90;;;;;;5039682;28;20459;-81
2021/08/05 11:07:30;;;;;;;4.77;4.37;;;22.30;99.90;;;;;;5045606;28;21323;-79
2021/08/05 11:10:22;;;;;;;4.60;4.20;;;22.30;99.90;;;;;;5049092;28;20534;-81
2021/08/05 11:12:50;;;;;;;3.80;3.50;;;22.40;99.90;;;;;;5038240;28;20821;-81
2021/08/05 11:15:46;;;;;;;4.53;4.13;;;22.50;99.90;;;;;;5037567;28;20515;-80
2021/08/05 11:18:20;;;;;;;6.03;3.60;;;22.60;99.90;;;;;;5038572;28;20508;-81
2021/08/05 11:21:08;;;;;;;4.03;3.73;;;22.60;99.90;;;;;;5037611;28;20501;-80
2021/08/05 11:23:41;;;;;;;4.93;3.73;;;22.60;99.90;;;;;;5039355;28;20451;-80
2021/08/05 11:26:09;;;;;;;3.90;3.60;;;22.60;99.90;;;;;;5039068;28;20447;-80
2021/08/05 11:28:46;;;;;;;4.37;3.97;;;22.60;99.90;;;;;;5041589;28;20463;-81
2021/08/05 11:31:25;;;;;;;3.50;3.20;;;22.70;99.90;;;;;;5042531;28;20442;-80
2021/08/05 11:33:55;;;;;;;3.77;3.37;;;22.70;99.90;;;;;;5039516;28;20976;-80
2021/08/05 11:36:27;;;;;;;4.40;4.00;;;22.80;99.90;;;;;;5039909;28;20487;-81
2021/08/05 11:39:27;;;;;;;6.93;6.23;;;22.80;99.90;;;;;;5038228;28;20478;-80
2021/08/05 11:41:57;;;;;;;4.90;4.50;;;22.90;99.90;;;;;;5038002;28;20427;-80
2021/08/05 11:44:39;;;;;;;4.97;4.57;;;22.90;99.90;;;;;;5037469;28;20447;-81
2021/08/05 11:47:11;;;;;;;5.67;5.13;;;22.90;99.90;;;;;;5037161;28;20806;-81
2021/08/05 11:49:40;;;;;;;5.33;4.87;;;23.00;99.90;;;;;;5039402;28;20432;-81
2021/08/05 11:52:11;;;;;;;5.03;4.53;;;23.00;99.90;;;;;;5037142;28;20482;-81
2021/08/05 11:54:40;;;;;;;5.13;4.33;;;23.00;99.90;;;;;;5042386;28;20446;-82
2021/08/05 11:57:08;;;;;;;4.40;4.10;;;23.00;99.90;;;;;;5047982;28;20490;-81
2021/08/05 11:59:39;;;;;;;6.30;5.70;;;23.00;99.90;;;;;;5050736;28;20451;-82
2021/08/05 12:02:09;;;;;;;6.63;5.67;;;23.10;99.90;;;;;;5047135;28;20832;-80
2021/08/05 12:04:36;;;;;;;4.60;4.20;;;23.20;99.90;;;;;;5042212;28;20447;-82
2021/08/05 12:07:26;;;;;;;3.93;3.63;;;23.20;99.90;;;;;;5039837;28;20442;-81
2021/08/05 12:10:05;;;;;;;4.33;3.93;;;23.30;99.90;;;;;;5038772;28;20435;-81
2021/08/05 12:12:37;;;;;;;4.20;3.80;;;23.40;99.90;;;;;;5038919;28;20453;-81
2021/08/05 12:15:06;;;;;;;13.67;5.00;;;23.30;99.90;;;;;;5038223;28;20837;-82
2021/08/05 12:17:35;;;;;;;3.83;3.53;;;23.10;99.90;;;;;;5037052;28;20478;-80
2021/08/05 12:20:04;;;;;;;3.70;3.50;;;22.90;99.90;;;;;;5037311;28;20446;-81
2021/08/05 12:22:34;;;;;;;4.20;3.80;;;22.90;99.90;;;;;;5037180;28;20451;-81
2021/08/05 12:25:05;;;;;;;4.00;3.70;;;22.90;99.90;;;;;;5036893;28;20462;-81
2021/08/05 12:27:32;;;;;;;8.70;4.73;;;23.00;99.90;;;;;;5037135;28;20485;-82
2021/08/05 12:30:00;;;;;;;6.40;4.30;;;23.10;99.90;;;;;;5037581;28;20443;-82
2021/08/05 12:32:27;;;;;;;4.67;4.03;;;23.20;99.90;;;;;;5038523;28;20497;-82
2021/08/05 12:34:54;;;;;;;4.70;3.83;;;23.20;99.90;;;;;;5039787;28;20447;-81
2021/08/05 12:37:21;;;;;;;4.83;4.40;;;23.30;99.90;;;;;;5039375;28;20491;-82
2021/08/05 12:39:50;;;;;;;6.33;4.10;;;23.30;99.90;;;;;;5039530;28;20958;-82
2021/08/05 12:42:18;;;;;;;4.00;3.60;;;23.30;99.90;;;;;;5043395;28;20447;-81
2021/08/05 12:44:46;;;;;;;7.63;4.17;;;23.30;99.90;;;;;;5056873;28;20457;-79
2021/08/05 12:47:13;;;;;;;9.03;5.00;;;23.40;99.90;;;;;;5055203;28;20467;-81
2021/08/05 12:49:42;;;;;;;5.33;4.83;;;23.40;99.90;;;;;;5046502;28;20487;-81
2021/08/05 12:52:10;;;;;;;3.90;3.60;;;23.30;99.90;;;;;;5044140;28;20455;-81